createdAt,value
2023-03-31T00:00:54.100Z,18.10
2023-03-31T00:03:24.251Z,17.60
2023-03-31T00:05:59.289Z,16.61
2023-03-31T00:08:30.487Z,17.26
2023-03-31T00:11:01.883Z,17.37
2023-03-31T00:13:29.869Z,17.96
2023-03-31T00:16:01.785Z,16.65
2023-03-31T00:18:30.221Z,17.47
2023-03-31T00:21:25.039Z,17.75
2023-03-31T00:23:57.462Z,17.82
2023-03-31T00:26:27.093Z,18.21
2023-03-31T00:28:55.099Z,18.25
2023-03-31T00:31:23.370Z,18.03
2023-03-31T00:33:51.147Z,17.75
2023-03-31T00:36:30.580Z,17.80
2023-03-31T00:39:02.829Z,17.92
2023-03-31T00:41:30.686Z,17.72
2023-03-31T00:44:34.517Z,17.55
2023-03-31T00:47:09.007Z,17.51
2023-03-31T00:49:40.560Z,17.92
2023-03-31T00:52:08.311Z,18.10
2023-03-31T00:54:37.688Z,17.50
2023-03-31T00:57:07.047Z,17.42
2023-03-31T00:59:37.367Z,17.50
2023-03-31T01:02:05.986Z,17.88
2023-03-31T01:04:35.522Z,17.72
2023-03-31T01:07:10.618Z,17.95
2023-03-31T01:09:38.921Z,17.70
2023-03-31T01:12:08.000Z,17.35
2023-03-31T01:14:35.305Z,17.61
2023-03-31T01:17:03.083Z,17.58
2023-03-31T01:19:46.384Z,17.21
2023-03-31T01:22:13.322Z,17.27
2023-03-31T01:25:02.306Z,16.68
2023-03-31T01:27:35.335Z,16.35
2023-03-31T01:30:20.720Z,17.29
2023-03-31T01:32:50.956Z,17.58
2023-03-31T01:35:37.113Z,17.22
2023-03-31T01:38:23.015Z,17.02
2023-03-31T01:40:55.978Z,16.86
2023-03-31T01:43:32.327Z,17.24
2023-03-31T01:45:59.832Z,16.87
2023-03-31T01:48:42.306Z,17.05
2023-03-31T01:51:16.772Z,17.07
2023-03-31T01:53:51.637Z,17.43
2023-03-31T01:56:23.806Z,17.36
2023-03-31T01:59:04.553Z,17.08
2023-03-31T02:01:56.676Z,17.60
2023-03-31T02:04:30.271Z,17.95
2023-03-31T02:07:00.457Z,18.32
2023-03-31T02:09:30.713Z,18.52
2023-03-31T02:11:59.135Z,18.25
2023-03-31T02:14:28.017Z,18.05
2023-03-31T02:17:02.573Z,18.34
2023-03-31T02:19:34.860Z,18.27
2023-03-31T02:22:04.683Z,18.22
2023-03-31T02:24:33.711Z,18.15
2023-03-31T02:27:19.655Z,18.00
2023-03-31T02:29:48.355Z,18.36
2023-03-31T02:32:16.040Z,18.29
2023-03-31T02:34:43.200Z,17.54
2023-03-31T02:37:11.297Z,17.92
2023-03-31T02:39:40.302Z,17.74
2023-03-31T02:42:07.795Z,17.90
2023-03-31T02:44:35.728Z,18.45
2023-03-31T02:47:08.318Z,18.42
2023-03-31T02:49:38.705Z,18.79
2023-03-31T02:52:06.140Z,18.84
2023-03-31T02:54:49.376Z,18.58
2023-03-31T02:57:26.378Z,18.78
2023-03-31T02:59:59.994Z,18.88
2023-03-31T03:02:46.253Z,18.74
2023-03-31T03:05:28.529Z,18.89
2023-03-31T03:07:56.211Z,18.74
2023-03-31T03:10:29.702Z,18.48
2023-03-31T03:13:00.362Z,18.16
2023-03-31T03:15:39.194Z,17.48
2023-03-31T03:18:06.870Z,17.81
2023-03-31T03:20:34.496Z,18.02
2023-03-31T03:23:01.828Z,17.83
2023-03-31T03:25:30.741Z,18.01
2023-03-31T03:27:58.018Z,18.00
2023-03-31T03:30:25.506Z,17.75
2023-03-31T03:32:54.756Z,17.80
2023-03-31T03:35:22.316Z,18.00
2023-03-31T03:37:49.721Z,17.76
2023-03-31T03:40:17.353Z,17.54
2023-03-31T03:42:44.797Z,17.53
2023-03-31T03:45:12.370Z,17.80
2023-03-31T03:47:39.809Z,17.92
2023-03-31T03:50:07.904Z,18.28
2023-03-31T03:52:35.360Z,18.17
2023-03-31T03:55:02.935Z,18.40
2023-03-31T03:57:30.294Z,18.37
2023-03-31T03:59:57.865Z,18.34
2023-03-31T04:02:28.008Z,17.96
2023-03-31T04:04:55.171Z,18.35
2023-03-31T04:07:22.441Z,18.24
2023-03-31T04:09:49.794Z,18.27
2023-03-31T04:12:16.870Z,18.25
2023-03-31T04:14:44.356Z,17.96
2023-03-31T04:17:16.062Z,18.04
2023-03-31T04:19:44.218Z,17.92
2023-03-31T04:22:12.095Z,18.15
2023-03-31T04:24:39.694Z,18.24
2023-03-31T04:27:09.392Z,18.03
2023-03-31T04:29:37.615Z,18.23
2023-03-31T04:32:05.158Z,17.68
2023-03-31T04:34:35.736Z,17.83
2023-03-31T04:37:04.352Z,18.07
2023-03-31T04:39:31.973Z,18.12
2023-03-31T04:42:00.353Z,17.90
2023-03-31T04:44:28.361Z,17.82
2023-03-31T04:46:56.297Z,18.09
2023-03-31T04:49:24.998Z,17.95
2023-03-31T04:51:52.437Z,18.09
2023-03-31T04:54:20.334Z,18.13
2023-03-31T04:56:48.480Z,18.21
2023-03-31T04:59:17.926Z,18.12
2023-03-31T05:01:45.900Z,18.40
2023-03-31T05:04:13.765Z,18.30
2023-03-31T05:06:41.469Z,18.11
2023-03-31T05:09:09.947Z,18.24
2023-03-31T05:11:38.500Z,18.45
2023-03-31T05:14:06.083Z,18.49
2023-03-31T05:16:33.380Z,18.17
2023-03-31T05:19:01.021Z,18.44
2023-03-31T05:21:30.789Z,18.63
2023-03-31T05:23:58.834Z,18.63
2023-03-31T05:26:26.966Z,18.61
2023-03-31T05:28:54.456Z,18.60
2023-03-31T05:31:22.190Z,18.52
2023-03-31T05:33:50.314Z,18.76
2023-03-31T05:36:18.351Z,18.48
2023-03-31T05:38:46.219Z,18.53
2023-03-31T05:41:13.334Z,18.02
2023-03-31T05:43:43.423Z,18.28
2023-03-31T05:46:10.998Z,18.58
2023-03-31T05:48:39.265Z,17.83
2023-03-31T05:51:07.202Z,18.30
2023-03-31T05:53:35.303Z,18.60
2023-03-31T05:56:04.069Z,18.79
2023-03-31T05:58:31.760Z,18.86
2023-03-31T06:01:02.857Z,18.95
2023-03-31T06:03:30.836Z,18.58
2023-03-31T06:05:58.854Z,18.67
2023-03-31T06:08:26.171Z,18.46
2023-03-31T06:10:53.516Z,18.10
2023-03-31T06:13:21.187Z,18.35
2023-03-31T06:15:58.197Z,18.57
2023-03-31T06:18:26.144Z,18.45
2023-03-31T06:20:53.692Z,18.45
2023-03-31T06:23:21.159Z,18.37
2023-03-31T06:25:51.937Z,18.59
2023-03-31T06:28:19.966Z,18.40
2023-03-31T06:30:47.681Z,18.70
2023-03-31T06:33:15.015Z,18.88
2023-03-31T06:35:42.445Z,19.06
2023-03-31T06:38:10.156Z,18.80
2023-03-31T06:40:37.961Z,19.00
2023-03-31T06:43:05.250Z,19.19
2023-03-31T06:45:32.302Z,19.04
2023-03-31T06:47:59.571Z,19.27
2023-03-31T06:50:27.289Z,19.74
2023-03-31T06:52:55.657Z,19.54
2023-03-31T06:55:23.457Z,19.41
2023-03-31T06:57:51.315Z,19.79
2023-03-31T07:00:21.492Z,19.81
2023-03-31T07:02:50.696Z,19.84
2023-03-31T07:05:20.532Z,19.58
2023-03-31T07:07:49.470Z,19.92
2023-03-31T07:10:17.971Z,19.13
2023-03-31T07:12:46.972Z,19.27
2023-03-31T07:15:14.822Z,18.88
2023-03-31T07:17:43.370Z,19.03
2023-03-31T07:20:15.265Z,19.13
2023-03-31T07:22:43.132Z,19.17
2023-03-31T07:25:11.045Z,19.71
2023-03-31T07:27:39.030Z,19.67
2023-03-31T07:30:07.617Z,19.71
2023-03-31T07:32:39.733Z,19.53
2023-03-31T07:35:07.169Z,19.85
2023-03-31T07:37:42.470Z,19.64
2023-03-31T07:40:11.515Z,19.32
2023-03-31T07:42:39.340Z,19.58
2023-03-31T07:45:08.556Z,19.59
2023-03-31T07:47:36.537Z,19.98
2023-03-31T07:50:06.161Z,19.34
2023-03-31T07:52:36.032Z,19.69
2023-03-31T07:55:04.420Z,19.39
2023-03-31T07:57:31.611Z,19.85
2023-03-31T07:59:58.913Z,19.75
2023-03-31T08:02:26.957Z,19.76
2023-03-31T08:04:55.830Z,19.60
2023-03-31T08:07:23.195Z,20.61
2023-03-31T08:09:57.257Z,20.06
2023-03-31T08:12:25.108Z,19.94
2023-03-31T08:14:53.986Z,20.02
2023-03-31T08:17:21.183Z,20.14
2023-03-31T08:19:48.648Z,20.40
2023-03-31T08:22:15.696Z,20.62
2023-03-31T08:24:44.305Z,20.74
2023-03-31T08:27:12.248Z,20.44
2023-03-31T08:29:40.101Z,20.49
2023-03-31T08:32:08.008Z,20.08
2023-03-31T08:34:38.449Z,20.25
2023-03-31T08:37:06.017Z,19.78
2023-03-31T08:39:34.704Z,19.29
2023-03-31T08:42:04.969Z,19.61
2023-03-31T08:44:32.314Z,19.95
2023-03-31T08:47:01.067Z,20.48
2023-03-31T08:49:30.198Z,20.38
2023-03-31T08:52:04.066Z,19.85
2023-03-31T08:54:37.486Z,19.23
2023-03-31T08:57:14.103Z,19.74
2023-03-31T08:59:44.881Z,19.56
2023-03-31T09:02:30.874Z,20.32
2023-03-31T09:05:17.642Z,19.99
2023-03-31T09:08:09.907Z,20.41
2023-03-31T09:10:57.965Z,20.41
2023-03-31T09:13:33.395Z,20.62
2023-03-31T09:16:04.441Z,20.23
2023-03-31T09:18:36.832Z,19.77
2023-03-31T09:21:22.549Z,20.15
2023-03-31T09:24:04.522Z,19.75
2023-03-31T09:26:47.458Z,19.78
2023-03-31T09:29:19.215Z,19.98
2023-03-31T09:31:47.366Z,19.91
2023-03-31T09:34:22.982Z,19.42
2023-03-31T09:36:50.214Z,20.01
2023-03-31T09:39:17.853Z,20.07
2023-03-31T09:41:46.444Z,20.51
2023-03-31T09:44:23.831Z,20.61
2023-03-31T09:46:52.075Z,20.00
2023-03-31T09:49:21.956Z,20.48
2023-03-31T09:51:59.715Z,20.98
2023-03-31T09:54:31.282Z,20.07
2023-03-31T09:56:59.464Z,20.17
2023-03-31T09:59:37.521Z,19.95
2023-03-31T10:02:17.926Z,19.87
2023-03-31T10:04:47.234Z,19.91
2023-03-31T10:07:14.726Z,20.26
2023-03-31T10:09:43.642Z,20.46
2023-03-31T10:12:20.405Z,20.85
2023-03-31T10:14:49.145Z,21.07
2023-03-31T10:17:19.699Z,20.49
2023-03-31T10:19:51.668Z,20.47
2023-03-31T10:22:33.397Z,20.09
2023-03-31T10:25:27.795Z,20.23
2023-03-31T10:27:56.515Z,20.45
2023-03-31T10:30:25.565Z,20.98
2023-03-31T10:32:54.658Z,21.13
2023-03-31T10:35:34.706Z,20.74
2023-03-31T10:38:16.406Z,20.88
2023-03-31T10:40:55.153Z,21.42
2023-03-31T10:43:27.455Z,20.93
2023-03-31T10:45:56.711Z,21.39
2023-03-31T10:48:31.563Z,21.70
2023-03-31T10:51:06.409Z,21.96
2023-03-31T10:53:45.770Z,22.06
2023-03-31T10:56:24.300Z,21.94
2023-03-31T10:59:04.650Z,21.78
2023-03-31T11:01:48.093Z,21.85
2023-03-31T11:04:19.408Z,21.44
2023-03-31T11:07:05.201Z,22.01
2023-03-31T11:09:42.138Z,21.66
2023-03-31T11:12:14.057Z,21.32
2023-03-31T11:15:03.527Z,21.84
2023-03-31T11:17:44.237Z,21.79
2023-03-31T11:20:30.806Z,22.43
2023-03-31T11:22:57.864Z,22.01
2023-03-31T11:25:28.720Z,21.08
2023-03-31T11:27:56.074Z,21.59
2023-03-31T11:30:24.707Z,21.30
2023-03-31T11:32:53.425Z,21.41
2023-03-31T11:35:35.984Z,21.32
2023-03-31T11:38:23.864Z,21.75
2023-03-31T11:41:20.745Z,21.84
2023-03-31T11:43:52.611Z,22.10
2023-03-31T11:46:22.888Z,22.41
2023-03-31T11:48:58.726Z,21.87
2023-03-31T11:51:30.887Z,22.24
2023-03-31T11:54:03.534Z,22.51
2023-03-31T11:56:35.931Z,21.76
2023-03-31T11:59:04.490Z,21.01
2023-03-31T12:01:54.892Z,21.26
2023-03-31T12:04:40.445Z,21.69
2023-03-31T12:07:15.905Z,21.50
2023-03-31T12:10:09.361Z,22.25
2023-03-31T12:12:42.839Z,21.97
2023-03-31T12:15:22.206Z,22.21
2023-03-31T12:18:09.387Z,21.69
2023-03-31T12:21:02.915Z,21.99
2023-03-31T12:23:33.996Z,21.86
2023-03-31T12:26:10.262Z,21.36
2023-03-31T12:28:39.091Z,21.55
2023-03-31T12:31:08.269Z,21.42
2023-03-31T12:33:41.113Z,21.75
2023-03-31T12:36:33.219Z,21.96
2023-03-31T12:39:13.448Z,21.38
2023-03-31T12:41:46.471Z,21.61
2023-03-31T12:44:14.518Z,21.23
2023-03-31T12:47:00.645Z,21.19
2023-03-31T12:49:35.805Z,20.85
2023-03-31T12:52:21.785Z,21.30
2023-03-31T12:55:04.192Z,21.30
2023-03-31T12:57:33.155Z,21.49
2023-03-31T13:00:22.435Z,21.05
2023-03-31T13:02:51.186Z,20.44
2023-03-31T13:05:38.027Z,20.62
2023-03-31T13:08:06.811Z,20.61
2023-03-31T13:10:33.850Z,20.08
2023-03-31T13:13:03.769Z,20.76
2023-03-31T13:15:32.564Z,20.83
2023-03-31T13:18:01.443Z,21.30
2023-03-31T13:20:38.702Z,20.49
2023-03-31T13:23:05.821Z,21.14
2023-03-31T13:25:38.121Z,20.77
2023-03-31T13:28:11.557Z,21.03
2023-03-31T13:30:45.674Z,21.06
2023-03-31T13:33:17.756Z,20.59
2023-03-31T13:35:48.034Z,21.25
2023-03-31T13:38:34.159Z,20.91
2023-03-31T13:41:11.096Z,20.35
2023-03-31T13:43:44.068Z,20.56
2023-03-31T13:46:36.855Z,21.01
2023-03-31T13:49:13.907Z,21.13
2023-03-31T13:52:03.351Z,21.74
2023-03-31T13:54:35.347Z,21.66
2023-03-31T13:57:21.547Z,21.07
2023-03-31T14:00:12.978Z,21.51
2023-03-31T14:02:52.362Z,21.73
2023-03-31T14:05:19.812Z,21.70
2023-03-31T14:07:50.174Z,21.60
2023-03-31T14:10:28.739Z,20.94
2023-03-31T14:13:18.225Z,20.90
2023-03-31T14:15:54.106Z,21.21
2023-03-31T14:18:33.967Z,21.49
2023-03-31T14:21:04.236Z,21.54
2023-03-31T14:23:38.407Z,21.59
2023-03-31T14:26:26.524Z,21.35
2023-03-31T14:29:14.052Z,21.44
2023-03-31T14:31:50.775Z,21.32
2023-03-31T14:34:18.057Z,20.83
2023-03-31T14:36:47.296Z,21.10
2023-03-31T14:39:17.144Z,20.92
2023-03-31T14:41:46.020Z,20.92
2023-03-31T14:44:18.803Z,21.01
2023-03-31T14:46:46.947Z,20.81
2023-03-31T14:49:33.231Z,20.65
2023-03-31T14:52:03.974Z,21.37
2023-03-31T14:54:34.340Z,21.42
2023-03-31T14:57:02.475Z,21.64
2023-03-31T14:59:31.091Z,21.58
2023-03-31T15:01:59.701Z,21.47
2023-03-31T15:04:41.432Z,21.89
2023-03-31T15:07:09.894Z,22.03
2023-03-31T15:09:39.134Z,21.49
2023-03-31T15:12:12.817Z,21.61
2023-03-31T15:14:45.359Z,22.11
2023-03-31T15:17:33.332Z,21.85
2023-03-31T15:20:01.750Z,21.61
2023-03-31T15:22:30.483Z,21.41
2023-03-31T15:24:58.201Z,21.71
2023-03-31T15:27:35.783Z,21.58
2023-03-31T15:30:07.097Z,21.53
2023-03-31T15:32:39.351Z,21.98
2023-03-31T15:37:56.729Z,21.94
2023-03-31T15:40:32.089Z,21.47
2023-03-31T15:43:20.581Z,21.64
2023-03-31T15:45:54.450Z,21.94
2023-03-31T15:48:22.082Z,21.79
2023-03-31T15:50:49.466Z,22.01
2023-03-31T15:53:28.742Z,22.38
2023-03-31T15:55:57.407Z,22.29
2023-03-31T15:58:44.807Z,22.16
2023-03-31T16:01:16.005Z,22.34
2023-03-31T16:03:46.011Z,22.73
2023-03-31T16:06:21.401Z,22.74
2023-03-31T16:08:58.299Z,22.73
2023-03-31T16:11:28.430Z,22.59
2023-03-31T16:14:00.018Z,22.31
2023-03-31T16:16:28.514Z,21.93
2023-03-31T16:19:17.429Z,21.94
2023-03-31T16:21:50.250Z,21.89
2023-03-31T16:24:17.564Z,21.61
2023-03-31T16:26:45.097Z,21.59
2023-03-31T16:29:20.936Z,21.02
2023-03-31T16:31:48.304Z,21.65
2023-03-31T16:34:15.308Z,22.07
2023-03-31T16:36:42.950Z,21.08
2023-03-31T16:39:10.826Z,21.44
2023-03-31T16:41:38.789Z,21.50
2023-03-31T16:44:06.582Z,21.74
2023-03-31T16:46:34.111Z,21.38
2023-03-31T16:49:01.548Z,21.48
2023-03-31T16:51:28.655Z,21.55
2023-03-31T16:53:58.376Z,21.61
2023-03-31T16:56:28.718Z,21.40
2023-03-31T16:58:56.385Z,21.21
2023-03-31T17:01:24.861Z,21.36
2023-03-31T17:03:53.839Z,21.41
2023-03-31T17:06:21.146Z,21.02
2023-03-31T17:08:48.487Z,21.09
2023-03-31T17:11:16.146Z,21.35
2023-03-31T17:13:45.007Z,21.24
2023-03-31T17:18:43.472Z,21.23
2023-03-31T17:21:11.360Z,21.03
2023-03-31T17:23:40.026Z,21.06
2023-03-31T17:26:10.439Z,21.14
2023-03-31T17:28:37.939Z,20.91
2023-03-31T17:31:15.241Z,20.92
2023-03-31T17:33:42.644Z,20.73
2023-03-31T17:36:10.312Z,20.72
2023-03-31T17:38:39.252Z,20.23
2023-03-31T17:41:09.060Z,20.47
2023-03-31T17:43:38.365Z,20.63
2023-03-31T17:46:13.351Z,20.60
2023-03-31T17:48:41.084Z,20.67
2023-03-31T17:51:09.456Z,20.71
2023-03-31T17:53:37.041Z,20.53
2023-03-31T17:56:05.180Z,20.53
2023-03-31T17:58:32.546Z,20.74
2023-03-31T18:01:08.358Z,20.44
2023-03-31T18:03:35.815Z,20.58
2023-03-31T18:06:04.818Z,20.61
2023-03-31T18:08:32.487Z,20.67
2023-03-31T18:11:00.747Z,20.54
2023-03-31T18:13:37.804Z,20.49
2023-03-31T18:16:05.486Z,20.45
2023-03-31T18:18:32.722Z,20.51
2023-03-31T18:21:03.481Z,20.21
2023-03-31T18:23:31.141Z,20.24
2023-03-31T18:25:58.437Z,20.35
2023-03-31T18:28:25.612Z,20.17
2023-03-31T18:30:53.724Z,20.17
2023-03-31T18:33:23.340Z,19.99
2023-03-31T18:35:51.045Z,19.93
2023-03-31T18:38:21.135Z,19.61
2023-03-31T18:40:49.715Z,19.90
2023-03-31T18:43:18.488Z,19.64
2023-03-31T18:45:49.617Z,19.83
2023-03-31T18:48:19.017Z,19.82
2023-03-31T18:50:47.448Z,19.66
2023-03-31T18:53:19.161Z,19.70
2023-03-31T18:55:49.807Z,19.65
2023-03-31T18:58:17.488Z,19.66
2023-03-31T19:00:46.306Z,19.65
2023-03-31T19:03:13.766Z,19.79
2023-03-31T19:05:41.772Z,19.67
2023-03-31T19:08:09.542Z,19.72
2023-03-31T19:10:36.740Z,19.68
2023-03-31T19:13:04.238Z,19.48
2023-03-31T19:15:32.828Z,19.57
2023-03-31T19:18:00.628Z,19.54
2023-03-31T19:20:28.711Z,19.38
2023-03-31T19:22:56.459Z,19.42
2023-03-31T19:25:24.181Z,19.47
2023-03-31T19:27:52.412Z,19.60
2023-03-31T19:30:23.685Z,19.45
2023-03-31T19:32:51.314Z,19.37
2023-03-31T19:35:19.705Z,19.34
2023-03-31T19:37:53.100Z,19.23
2023-03-31T19:40:20.525Z,19.11
2023-03-31T19:42:48.848Z,19.05
2023-03-31T19:45:15.823Z,19.07
2023-03-31T19:47:43.572Z,19.16
2023-03-31T19:50:17.308Z,19.13
2023-03-31T19:52:47.915Z,19.18
2023-03-31T19:55:16.685Z,18.85
2023-03-31T19:57:44.334Z,18.77
2023-03-31T20:00:12.646Z,18.92
2023-03-31T20:02:40.066Z,19.16
2023-03-31T20:05:08.845Z,19.11
2023-03-31T20:07:36.242Z,18.89
2023-03-31T20:10:04.813Z,18.98
2023-03-31T20:12:32.525Z,19.03
2023-03-31T20:15:00.848Z,18.72
2023-03-31T20:17:28.274Z,18.80
2023-03-31T20:19:55.743Z,19.07
2023-03-31T20:22:23.328Z,19.16
2023-03-31T20:24:52.182Z,19.02
2023-03-31T20:27:28.380Z,18.93
2023-03-31T20:29:59.235Z,18.58
2023-03-31T20:32:25.993Z,18.90
2023-03-31T20:34:55.087Z,19.09
2023-03-31T20:37:23.315Z,19.06
2023-03-31T20:39:51.329Z,19.11
2023-03-31T20:42:19.170Z,19.13
2023-03-31T20:44:47.446Z,19.26
2023-03-31T20:47:14.872Z,19.31
2023-03-31T20:49:42.380Z,19.04
2023-03-31T20:52:10.517Z,19.02
2023-03-31T20:54:47.476Z,18.80
2023-03-31T20:57:15.617Z,19.08
2023-03-31T20:59:43.213Z,19.17
2023-03-31T21:02:12.632Z,19.03
2023-03-31T21:04:40.527Z,18.96
2023-03-31T21:07:08.159Z,18.96
2023-03-31T21:09:36.022Z,18.65
2023-03-31T21:12:04.503Z,18.71
2023-03-31T21:14:32.316Z,18.89
2023-03-31T21:16:59.953Z,18.91
2023-03-31T21:19:28.172Z,18.95
2023-03-31T21:22:02.282Z,18.91
2023-03-31T21:24:30.309Z,18.93
2023-03-31T21:26:58.174Z,19.05
2023-03-31T21:29:25.172Z,18.85
2023-03-31T21:31:52.482Z,18.92
2023-03-31T21:34:22.506Z,19.03
2023-03-31T21:36:50.992Z,19.10
2023-03-31T21:39:20.017Z,18.96
2023-03-31T21:41:47.436Z,18.90
2023-03-31T21:44:16.206Z,18.77
2023-03-31T21:46:45.249Z,18.74
2023-03-31T21:49:12.922Z,18.78
2023-03-31T21:51:40.490Z,18.95
2023-03-31T21:54:08.135Z,18.78
2023-03-31T21:56:35.483Z,18.87
2023-03-31T21:59:04.424Z,18.79
2023-03-31T22:01:32.498Z,18.77
2023-03-31T22:04:00.452Z,18.68
2023-03-31T22:06:29.907Z,18.79
2023-03-31T22:08:57.451Z,18.93
2023-03-31T22:11:25.059Z,19.01
2023-03-31T22:13:52.350Z,18.84
2023-03-31T22:16:20.793Z,18.84
2023-03-31T22:18:48.637Z,18.39
2023-03-31T22:21:23.382Z,18.55
2023-03-31T22:23:53.964Z,18.81
2023-03-31T22:26:23.329Z,18.58
2023-03-31T22:28:50.851Z,18.80
2023-03-31T22:31:17.751Z,18.61
2023-03-31T22:33:46.490Z,18.33
2023-03-31T22:36:13.897Z,18.70
2023-03-31T22:38:42.035Z,18.82
2023-03-31T22:41:09.306Z,18.79
2023-03-31T22:43:37.874Z,18.94
2023-03-31T22:46:05.446Z,18.79
2023-03-31T22:48:34.391Z,18.95
2023-03-31T22:51:12.205Z,18.73
2023-03-31T22:53:38.955Z,18.86
2023-03-31T22:56:07.465Z,18.90
2023-03-31T22:58:34.759Z,18.65
2023-03-31T23:01:02.363Z,19.12
2023-03-31T23:03:30.006Z,19.03
2023-03-31T23:06:03.452Z,18.82
2023-03-31T23:08:30.909Z,18.93
2023-03-31T23:10:59.411Z,18.94
2023-03-31T23:13:27.097Z,19.00
2023-03-31T23:15:54.772Z,18.89
2023-03-31T23:18:24.313Z,19.01
2023-03-31T23:20:53.054Z,18.80
2023-03-31T23:23:20.457Z,18.87
2023-03-31T23:25:47.884Z,18.69
2023-03-31T23:28:15.229Z,18.36
2023-03-31T23:30:42.567Z,18.34
2023-03-31T23:33:09.824Z,18.59
2023-03-31T23:35:36.997Z,18.60
2023-03-31T23:38:07.308Z,18.95
2023-03-31T23:40:35.225Z,18.73
2023-03-31T23:43:05.155Z,18.46
2023-03-31T23:45:32.548Z,18.54
2023-03-31T23:47:59.956Z,18.59
2023-03-31T23:50:28.896Z,18.16
2023-03-31T23:52:59.521Z,18.00
2023-03-31T23:55:27.233Z,18.46
2023-03-31T23:57:54.776Z,18.69
